createdAt,value
2022-12-05T00:02:26.824Z,4.16
2022-12-05T00:04:54.852Z,4.17
2022-12-05T00:07:22.681Z,4.16
2022-12-05T00:09:50.962Z,4.17
2022-12-05T00:12:19.307Z,4.18
2022-12-05T00:14:47.318Z,4.18
2022-12-05T00:17:16.587Z,4.20
2022-12-05T00:19:56.619Z,4.20
2022-12-05T00:22:26.963Z,4.20
2022-12-05T00:24:55.794Z,4.22
2022-12-05T00:27:23.686Z,4.25
2022-12-05T00:29:52.621Z,4.25
2022-12-05T00:32:21.926Z,4.22
2022-12-05T00:34:56.229Z,4.22
2022-12-05T00:37:24.409Z,4.24
2022-12-05T00:40:00.682Z,4.30
2022-12-05T00:42:59.242Z,4.30
2022-12-05T00:45:42.544Z,4.33
2022-12-05T00:48:12.964Z,4.38
2022-12-05T00:50:52.086Z,4.39
2022-12-05T00:53:19.996Z,4.37
2022-12-05T00:55:48.841Z,4.35
2022-12-05T00:58:16.670Z,4.40
2022-12-05T01:00:44.814Z,4.47
2022-12-05T01:03:14.256Z,4.43
2022-12-05T01:05:43.325Z,4.42
2022-12-05T01:08:11.317Z,4.53
2022-12-05T01:10:39.368Z,4.56
2022-12-05T01:13:07.340Z,4.55
2022-12-05T01:15:37.794Z,4.60
2022-12-05T01:18:05.886Z,4.54
2022-12-05T01:20:35.326Z,4.57
2022-12-05T01:23:03.186Z,4.57
2022-12-05T01:25:31.035Z,4.64
2022-12-05T01:27:59.243Z,4.66
2022-12-05T01:30:29.977Z,4.75
2022-12-05T01:32:58.135Z,4.55
2022-12-05T01:35:26.545Z,4.66
2022-12-05T01:37:56.409Z,4.73
2022-12-05T01:40:24.573Z,4.70
2022-12-05T01:43:11.255Z,4.69
2022-12-05T01:45:43.441Z,4.68
2022-12-05T01:48:15.781Z,4.65
2022-12-05T01:50:44.310Z,4.69
2022-12-05T01:53:13.666Z,4.68
2022-12-05T01:55:41.705Z,4.71
2022-12-05T01:58:11.470Z,4.63
2022-12-05T02:00:41.256Z,4.68
2022-12-05T02:03:11.913Z,4.68
2022-12-05T02:05:47.260Z,4.61
2022-12-05T02:08:17.326Z,4.67
2022-12-05T02:10:49.212Z,4.69
2022-12-05T02:13:35.531Z,4.69
2022-12-05T02:16:10.480Z,4.68
2022-12-05T02:18:56.939Z,4.73
2022-12-05T02:21:48.399Z,4.66
2022-12-05T02:24:56.603Z,4.66
2022-12-05T02:27:45.744Z,4.65
2022-12-05T02:30:17.761Z,4.64
2022-12-05T02:32:57.823Z,4.68
2022-12-05T02:35:42.828Z,4.66
2022-12-05T02:38:20.546Z,4.69
2022-12-05T02:41:01.309Z,4.63
2022-12-05T02:43:36.082Z,4.67
2022-12-05T02:46:10.573Z,4.66
2022-12-05T02:48:40.239Z,4.67
2022-12-05T02:51:10.824Z,4.61
2022-12-05T02:53:39.557Z,4.63
2022-12-05T02:56:08.944Z,4.68
2022-12-05T02:58:42.285Z,4.69
2022-12-05T03:01:12.030Z,4.65
2022-12-05T03:03:43.068Z,4.67
2022-12-05T03:06:16.285Z,4.66
2022-12-05T03:08:50.210Z,4.68
2022-12-05T03:11:18.359Z,4.67
2022-12-05T03:13:53.495Z,4.67
2022-12-05T03:16:30.236Z,4.67
2022-12-05T03:19:12.840Z,4.57
2022-12-05T03:21:48.825Z,4.72
2022-12-05T03:24:19.619Z,4.67
2022-12-05T03:26:56.871Z,4.72
2022-12-05T03:29:48.635Z,4.72
2022-12-05T03:32:25.566Z,4.71
2022-12-05T03:35:03.981Z,4.74
2022-12-05T03:37:41.368Z,4.75
2022-12-05T03:40:20.860Z,4.72
2022-12-05T03:42:54.540Z,4.71
2022-12-05T03:45:29.902Z,4.71
2022-12-05T03:48:06.819Z,4.70
2022-12-05T03:50:38.815Z,4.74
2022-12-05T03:53:19.711Z,4.72
2022-12-05T03:55:55.759Z,4.71
2022-12-05T03:58:29.044Z,4.71
2022-12-05T04:01:00.376Z,4.70
2022-12-05T04:03:39.674Z,4.72
2022-12-05T04:06:15.037Z,4.68
2022-12-05T04:08:48.793Z,4.63
2022-12-05T04:11:24.130Z,4.66
2022-12-05T04:13:55.207Z,4.63
2022-12-05T04:16:44.707Z,4.73
2022-12-05T04:19:20.535Z,4.71
2022-12-05T04:21:50.610Z,4.73
2022-12-05T04:24:40.062Z,4.70
2022-12-05T04:27:18.276Z,4.77
2022-12-05T04:29:54.929Z,4.70
2022-12-05T04:32:28.520Z,4.73
2022-12-05T04:35:04.870Z,4.73
2022-12-05T04:37:38.589Z,4.77
2022-12-05T04:40:12.283Z,4.75
2022-12-05T04:42:42.683Z,4.76
2022-12-05T04:45:14.901Z,4.77
2022-12-05T04:47:48.560Z,4.73
2022-12-05T04:50:22.499Z,4.74
2022-12-05T04:52:59.571Z,4.76
2022-12-05T04:55:29.541Z,4.80
2022-12-05T04:58:05.671Z,4.76
2022-12-05T05:00:40.887Z,4.74
2022-12-05T05:03:15.150Z,4.76
2022-12-05T05:05:48.283Z,4.76
2022-12-05T05:08:21.419Z,4.72
2022-12-05T05:10:58.568Z,4.72
2022-12-05T05:13:26.398Z,4.80
2022-12-05T05:15:54.312Z,4.77
2022-12-05T05:18:22.320Z,4.82
2022-12-05T05:20:51.583Z,4.80
2022-12-05T05:23:19.508Z,4.82
2022-12-05T05:25:47.614Z,4.80
2022-12-05T05:28:15.651Z,4.72
2022-12-05T05:30:43.426Z,4.82
2022-12-05T05:33:12.159Z,4.81
2022-12-05T05:35:40.478Z,4.81
2022-12-05T05:38:09.752Z,4.81
2022-12-05T05:40:37.955Z,4.85
2022-12-05T05:43:06.146Z,4.75
2022-12-05T05:45:34.116Z,4.82
2022-12-05T05:48:02.074Z,4.86
2022-12-05T05:50:29.974Z,4.84
2022-12-05T05:52:58.170Z,4.79
2022-12-05T05:55:27.457Z,4.80
2022-12-05T05:57:55.374Z,4.82
2022-12-05T06:00:23.553Z,4.81
2022-12-05T06:02:51.532Z,4.83
2022-12-05T06:05:20.591Z,4.80
2022-12-05T06:07:48.473Z,4.76
2022-12-05T06:10:16.722Z,4.82
2022-12-05T06:12:48.135Z,4.84
2022-12-05T06:15:17.370Z,4.82
2022-12-05T06:17:54.332Z,4.81
2022-12-05T06:20:22.592Z,4.73
2022-12-05T06:22:56.860Z,4.81
2022-12-05T06:25:24.784Z,4.82
2022-12-05T06:27:54.111Z,4.83
2022-12-05T06:30:22.924Z,4.84
2022-12-05T06:32:51.060Z,4.78
2022-12-05T06:35:19.107Z,4.82
2022-12-05T06:37:47.008Z,4.82
2022-12-05T06:40:15.808Z,4.86
2022-12-05T06:42:43.782Z,4.82
2022-12-05T06:45:13.356Z,4.86
2022-12-05T06:47:41.336Z,4.83
2022-12-05T06:50:14.191Z,4.83
2022-12-05T06:52:42.922Z,4.82
2022-12-05T06:55:11.993Z,4.86
2022-12-05T06:57:40.208Z,4.86
2022-12-05T07:00:26.893Z,4.87
2022-12-05T07:02:57.184Z,4.84
2022-12-05T07:05:25.166Z,4.85
2022-12-05T07:07:53.391Z,4.87
2022-12-05T07:10:25.199Z,4.87
2022-12-05T07:12:54.230Z,4.88
2022-12-05T07:15:29.834Z,4.85
2022-12-05T07:18:05.153Z,4.84
2022-12-05T07:21:03.436Z,4.84
2022-12-05T07:23:25.865Z,4.87
2022-12-05T07:25:54.976Z,4.87
2022-12-05T07:28:23.146Z,4.80
2022-12-05T07:30:59.821Z,4.87
2022-12-05T07:33:29.416Z,4.85
2022-12-05T07:36:02.232Z,4.87
2022-12-05T07:38:32.353Z,4.85
2022-12-05T07:41:00.432Z,4.83
2022-12-05T07:43:28.419Z,4.84
2022-12-05T07:45:56.291Z,4.80
2022-12-05T07:48:24.329Z,4.86
2022-12-05T07:50:53.850Z,4.83
2022-12-05T07:53:23.445Z,4.84
2022-12-05T07:55:51.554Z,4.88
2022-12-05T07:58:19.674Z,4.82
2022-12-05T08:00:47.658Z,4.83
2022-12-05T08:03:15.662Z,4.81
2022-12-05T08:05:43.993Z,4.83
2022-12-05T08:08:14.967Z,4.82
2022-12-05T08:10:46.153Z,4.82
2022-12-05T08:13:16.570Z,4.83
2022-12-05T08:15:44.519Z,4.83
2022-12-05T08:18:12.624Z,4.85
2022-12-05T08:20:41.039Z,4.82
2022-12-05T08:23:09.041Z,4.83
2022-12-05T08:25:38.435Z,4.84
2022-12-05T08:28:06.685Z,4.86
2022-12-05T08:30:35.215Z,4.83
2022-12-05T08:33:03.291Z,4.83
2022-12-05T08:35:31.212Z,4.83
2022-12-05T08:37:59.661Z,4.85
2022-12-05T08:40:27.870Z,4.86
2022-12-05T08:42:57.110Z,4.75
2022-12-05T08:45:25.203Z,4.74
2022-12-05T08:47:53.254Z,4.82
2022-12-05T08:50:22.097Z,4.81
2022-12-05T08:52:51.081Z,4.67
2022-12-05T08:55:21.396Z,4.85
2022-12-05T08:57:53.426Z,4.80
2022-12-05T09:00:23.451Z,4.83
2022-12-05T09:02:52.218Z,4.85
2022-12-05T09:05:29.193Z,4.83
2022-12-05T09:08:00.101Z,4.87
2022-12-05T09:10:28.670Z,4.83
2022-12-05T09:12:58.072Z,4.82
2022-12-05T09:15:27.845Z,4.83
2022-12-05T09:17:55.976Z,4.84
2022-12-05T09:20:24.195Z,4.85
2022-12-05T09:22:53.612Z,4.87
2022-12-05T09:25:21.962Z,4.86
2022-12-05T09:27:51.781Z,4.86
2022-12-05T09:30:29.353Z,4.82
2022-12-05T09:32:57.350Z,4.87
2022-12-05T09:35:25.242Z,4.91
2022-12-05T09:38:01.365Z,4.85
2022-12-05T09:40:30.539Z,4.90
2022-12-05T09:43:09.793Z,4.90
2022-12-05T09:45:50.568Z,4.82
2022-12-05T09:48:23.052Z,4.85
2022-12-05T09:50:54.312Z,4.87
2022-12-05T09:53:32.422Z,4.90
2022-12-05T09:56:05.364Z,4.85
2022-12-05T09:58:42.985Z,4.79
2022-12-05T10:01:27.057Z,4.83
2022-12-05T10:04:14.516Z,4.82
2022-12-05T10:06:51.424Z,4.88
2022-12-05T10:09:34.322Z,4.88
2022-12-05T10:12:12.661Z,4.91
2022-12-05T10:14:49.934Z,4.84
2022-12-05T10:17:26.484Z,4.88
2022-12-05T10:19:59.369Z,4.90
2022-12-05T10:22:37.318Z,4.85
2022-12-05T10:25:25.776Z,4.90
2022-12-05T10:27:58.435Z,4.90
2022-12-05T10:30:31.019Z,4.91
2022-12-05T10:33:09.192Z,4.92
2022-12-05T10:35:41.255Z,4.90
2022-12-05T10:38:18.281Z,4.93
2022-12-05T10:40:53.101Z,4.93
2022-12-05T10:43:26.239Z,4.91
2022-12-05T10:45:54.623Z,4.93
2022-12-05T10:48:25.006Z,4.85
2022-12-05T10:50:54.801Z,4.85
2022-12-05T10:53:27.161Z,4.89
2022-12-05T10:56:28.638Z,4.89
2022-12-05T10:58:56.615Z,4.93
2022-12-05T11:01:27.365Z,4.90
2022-12-05T11:04:02.545Z,4.87
2022-12-05T11:06:33.074Z,4.92
2022-12-05T11:09:06.553Z,4.92
2022-12-05T11:11:35.195Z,4.97
2022-12-05T11:14:05.459Z,4.96
2022-12-05T11:16:36.308Z,4.97
2022-12-05T11:19:25.234Z,4.94
2022-12-05T11:21:53.647Z,4.98
2022-12-05T11:24:23.948Z,4.97
2022-12-05T11:26:51.981Z,4.95
2022-12-05T11:29:30.757Z,4.98
2022-12-05T11:31:58.792Z,5.11
2022-12-05T11:34:34.790Z,5.11
2022-12-05T11:37:11.817Z,5.09
2022-12-05T11:39:40.026Z,5.11
2022-12-05T11:42:20.695Z,5.10
2022-12-05T11:45:17.964Z,5.10
2022-12-05T11:48:28.057Z,5.08
2022-12-05T11:51:14.699Z,5.06
2022-12-05T11:54:00.584Z,4.96
2022-12-05T11:56:38.360Z,4.99
2022-12-05T11:59:52.654Z,4.98
2022-12-05T12:02:39.208Z,5.05
2022-12-05T12:05:19.114Z,5.06
2022-12-05T12:08:00.927Z,4.94
2022-12-05T12:10:34.348Z,4.99
2022-12-05T12:13:17.081Z,5.05
2022-12-05T12:16:06.602Z,5.08
2022-12-05T12:19:03.924Z,5.06
2022-12-05T12:21:48.951Z,4.96
2022-12-05T12:24:28.671Z,5.14
2022-12-05T12:27:06.355Z,5.04
2022-12-05T12:29:47.722Z,5.03
2022-12-05T12:32:28.280Z,5.02
2022-12-05T12:35:22.741Z,5.01
2022-12-05T12:38:13.943Z,4.93
2022-12-05T12:40:51.414Z,4.88
2022-12-05T12:43:55.119Z,5.00
2022-12-05T12:46:40.162Z,5.01
2022-12-05T12:49:38.293Z,5.07
2022-12-05T12:52:14.215Z,5.04
2022-12-05T12:55:04.397Z,5.04
2022-12-05T12:57:49.120Z,5.02
2022-12-05T13:00:32.175Z,5.00
2022-12-05T13:03:07.428Z,4.93
2022-12-05T13:05:47.879Z,5.00
2022-12-05T13:08:22.393Z,4.94
2022-12-05T13:11:05.788Z,5.06
2022-12-05T13:13:47.723Z,5.02
2022-12-05T13:16:35.445Z,4.98
2022-12-05T13:19:07.000Z,5.04
2022-12-05T13:21:41.442Z,5.00
2022-12-05T13:24:14.507Z,5.02
2022-12-05T13:26:49.417Z,5.03
2022-12-05T13:29:32.242Z,5.03
2022-12-05T13:32:04.029Z,5.02
2022-12-05T13:34:49.116Z,5.05
2022-12-05T13:37:42.946Z,5.03
2022-12-05T13:40:44.444Z,5.02
2022-12-05T13:43:14.178Z,4.99
2022-12-05T13:46:00.749Z,5.02
2022-12-05T13:48:31.244Z,4.94
2022-12-05T13:51:03.259Z,4.96
2022-12-05T13:53:37.544Z,4.95
2022-12-05T13:56:08.525Z,4.95
2022-12-05T13:58:46.823Z,4.99
2022-12-05T14:01:57.472Z,4.99
2022-12-05T14:04:50.221Z,4.98
2022-12-05T14:07:42.260Z,4.96
2022-12-05T14:10:11.860Z,4.98
2022-12-05T14:13:01.518Z,4.95
2022-12-05T14:15:35.578Z,4.91
2022-12-05T14:18:10.513Z,4.83
2022-12-05T14:20:49.948Z,4.93
2022-12-05T14:23:34.496Z,4.94
2022-12-05T14:26:17.276Z,4.89
2022-12-05T14:29:13.480Z,4.93
2022-12-05T14:31:56.441Z,4.90
2022-12-05T14:34:30.176Z,4.86
2022-12-05T14:37:20.969Z,4.92
2022-12-05T14:39:53.014Z,4.78
2022-12-05T14:42:36.954Z,4.82
2022-12-05T14:45:25.889Z,4.91
2022-12-05T14:47:57.724Z,4.94
2022-12-05T14:50:46.196Z,4.89
2022-12-05T14:53:36.591Z,4.94
2022-12-05T14:56:13.437Z,4.90
2022-12-05T14:58:46.661Z,4.87
2022-12-05T15:01:20.046Z,4.89
2022-12-05T15:04:25.021Z,4.85
2022-12-05T15:06:56.892Z,4.87
2022-12-05T15:09:42.474Z,4.85
2022-12-05T15:12:16.192Z,4.91
2022-12-05T15:14:54.175Z,4.89
2022-12-05T15:17:35.574Z,4.88
2022-12-05T15:20:09.430Z,4.86
2022-12-05T15:22:38.838Z,4.87
2022-12-05T15:25:26.150Z,4.87
2022-12-05T15:27:56.024Z,4.86
2022-12-05T15:30:24.076Z,4.79
2022-12-05T15:32:57.703Z,4.87
2022-12-05T15:35:30.076Z,4.82
2022-12-05T15:38:06.392Z,4.77
2022-12-05T15:40:50.366Z,4.82
2022-12-05T15:43:34.168Z,4.73
2022-12-05T15:46:30.552Z,4.86
2022-12-05T15:49:02.488Z,4.85
2022-12-05T15:51:37.002Z,4.77
2022-12-05T15:54:09.402Z,4.90
2022-12-05T15:56:44.288Z,4.89
2022-12-05T15:59:18.578Z,4.89
2022-12-05T16:01:52.515Z,4.91
2022-12-05T16:04:32.122Z,4.86
2022-12-05T16:07:04.275Z,4.90
2022-12-05T16:09:35.232Z,4.87
2022-12-05T16:12:15.918Z,4.86
2022-12-05T16:15:02.210Z,4.87
2022-12-05T16:17:31.679Z,4.83
2022-12-05T16:20:12.813Z,4.90
2022-12-05T16:22:45.428Z,4.87
2022-12-05T16:25:23.522Z,4.90
2022-12-05T16:28:35.055Z,4.88
2022-12-05T16:31:06.761Z,4.80
2022-12-05T16:33:40.208Z,4.85
2022-12-05T16:36:12.532Z,4.81
2022-12-05T16:38:44.923Z,4.86
2022-12-05T16:41:16.185Z,4.79
2022-12-05T16:43:46.071Z,4.83
2022-12-05T16:46:44.222Z,4.82
2022-12-05T16:49:19.327Z,4.81
2022-12-05T16:51:55.772Z,4.86
2022-12-05T16:54:23.858Z,4.84
2022-12-05T16:56:51.864Z,4.81
2022-12-05T16:59:24.890Z,4.85
2022-12-05T17:01:54.178Z,4.87
2022-12-05T17:04:22.272Z,4.82
2022-12-05T17:06:50.265Z,4.82
2022-12-05T17:09:19.322Z,4.82
2022-12-05T17:11:49.094Z,4.82
2022-12-05T17:14:18.406Z,4.83
2022-12-05T17:16:46.779Z,4.82
2022-12-05T17:19:16.162Z,4.85
2022-12-05T17:21:44.994Z,4.85
2022-12-05T17:24:17.512Z,4.87
2022-12-05T17:26:49.255Z,4.87
2022-12-05T17:29:17.291Z,4.86
2022-12-05T17:31:45.428Z,4.86
2022-12-05T17:34:18.872Z,4.84
2022-12-05T17:36:47.375Z,4.83
2022-12-05T17:39:15.215Z,4.87
2022-12-05T17:41:44.214Z,4.85
2022-12-05T17:44:14.138Z,4.87
2022-12-05T17:46:42.846Z,4.87
2022-12-05T17:49:14.160Z,4.90
2022-12-05T17:52:05.422Z,4.84
2022-12-05T17:54:34.706Z,4.81
2022-12-05T17:57:02.633Z,4.89
2022-12-05T17:59:30.596Z,4.82
2022-12-05T18:01:58.463Z,4.87
2022-12-05T18:04:26.355Z,4.86
2022-12-05T18:06:55.699Z,4.86
2022-12-05T18:09:24.040Z,4.81
2022-12-05T18:11:51.891Z,4.85
2022-12-05T18:14:19.798Z,4.80
2022-12-05T18:16:47.748Z,4.78
2022-12-05T18:19:15.803Z,4.83
2022-12-05T18:21:43.775Z,4.83
2022-12-05T18:24:14.248Z,4.80
2022-12-05T18:26:42.138Z,4.81
2022-12-05T18:29:10.105Z,4.79
2022-12-05T18:31:41.437Z,4.72
2022-12-05T18:34:10.561Z,4.78
2022-12-05T18:36:38.812Z,4.78
2022-12-05T18:39:07.039Z,4.76
2022-12-05T18:41:36.284Z,4.79
2022-12-05T18:44:10.281Z,4.78
2022-12-05T18:46:38.416Z,4.79
2022-12-05T18:49:13.255Z,4.76
2022-12-05T18:51:43.237Z,4.73
2022-12-05T18:54:11.526Z,4.76
2022-12-05T18:56:41.062Z,4.77
2022-12-05T18:59:15.024Z,4.76
2022-12-05T19:01:43.333Z,4.73
2022-12-05T19:04:13.922Z,4.75
2022-12-05T19:06:50.913Z,4.75
2022-12-05T19:09:21.769Z,4.79
2022-12-05T19:11:54.847Z,4.75
2022-12-05T19:14:22.934Z,4.79
2022-12-05T19:17:00.202Z,4.75
2022-12-05T19:19:30.173Z,4.74
2022-12-05T19:22:02.559Z,4.68
2022-12-05T19:24:32.432Z,4.78
2022-12-05T19:27:01.836Z,4.77
2022-12-05T19:29:29.767Z,4.76
2022-12-05T19:31:59.689Z,4.80
2022-12-05T19:34:27.764Z,4.78
2022-12-05T19:36:56.634Z,4.79
2022-12-05T19:39:27.207Z,4.79
2022-12-05T19:41:57.566Z,4.80
2022-12-05T19:44:28.935Z,4.82
2022-12-05T19:46:56.866Z,4.83
2022-12-05T19:49:24.979Z,4.79
2022-12-05T19:51:52.835Z,4.85
2022-12-05T19:54:22.062Z,4.87
2022-12-05T19:56:49.969Z,4.88
2022-12-05T19:59:18.145Z,4.92
2022-12-05T20:01:49.854Z,4.93
2022-12-05T20:04:17.891Z,4.89
2022-12-05T20:06:47.502Z,4.93
2022-12-05T20:09:17.967Z,4.89
2022-12-05T20:11:54.271Z,4.79
2022-12-05T20:14:25.631Z,4.86
2022-12-05T20:16:55.233Z,4.91
2022-12-05T20:19:23.671Z,4.92
2022-12-05T20:21:51.676Z,4.92
2022-12-05T20:24:20.816Z,4.82
2022-12-05T20:26:48.897Z,4.89
2022-12-05T20:29:16.910Z,4.89
2022-12-05T20:31:48.616Z,4.91
2022-12-05T20:34:18.033Z,4.93
2022-12-05T20:36:45.888Z,4.88
2022-12-05T20:39:15.952Z,4.87
2022-12-05T20:41:44.296Z,4.89
2022-12-05T20:44:15.747Z,4.85
2022-12-05T20:46:43.978Z,4.83
2022-12-05T20:49:13.667Z,4.88
2022-12-05T20:51:44.962Z,4.85
2022-12-05T20:54:14.019Z,4.89
2022-12-05T20:56:42.275Z,4.86
2022-12-05T20:59:12.748Z,4.78
2022-12-05T21:01:40.817Z,4.81
2022-12-05T21:04:09.856Z,4.80
2022-12-05T21:06:43.419Z,4.78
2022-12-05T21:09:18.471Z,4.78
2022-12-05T21:11:46.703Z,4.78
2022-12-05T21:14:14.873Z,4.82
2022-12-05T21:16:42.667Z,4.78
2022-12-05T21:19:10.595Z,4.80
2022-12-05T21:21:39.061Z,4.77
2022-12-05T21:24:08.457Z,4.76
2022-12-05T21:26:38.879Z,4.78
2022-12-05T21:29:08.337Z,4.74
2022-12-05T21:31:38.591Z,4.76
2022-12-05T21:34:08.560Z,4.76
2022-12-05T21:36:43.493Z,4.80
2022-12-05T21:39:12.073Z,4.79
2022-12-05T21:41:42.596Z,4.76
2022-12-05T21:44:10.567Z,4.82
2022-12-05T21:46:38.476Z,4.79
2022-12-05T21:49:07.578Z,4.81
2022-12-05T21:51:35.555Z,4.85
2022-12-05T21:54:03.657Z,4.83
2022-12-05T21:56:32.591Z,4.82
2022-12-05T21:59:03.914Z,4.83
2022-12-05T22:01:31.884Z,4.81
2022-12-05T22:04:01.986Z,4.82
2022-12-05T22:06:33.484Z,4.88
2022-12-05T22:09:02.134Z,4.86
2022-12-05T22:11:29.991Z,4.86
2022-12-05T22:13:58.476Z,4.79
2022-12-05T22:16:32.840Z,4.86
2022-12-05T22:19:01.741Z,4.80
2022-12-05T22:21:30.312Z,4.80
2022-12-05T22:23:58.338Z,4.86
2022-12-05T22:26:27.766Z,4.86
2022-12-05T22:28:57.232Z,4.83
2022-12-05T22:31:30.722Z,4.81
2022-12-05T22:33:58.936Z,4.81
2022-12-05T22:36:26.935Z,4.81
2022-12-05T22:38:55.082Z,4.81
2022-12-05T22:41:25.352Z,4.83
2022-12-05T22:43:56.792Z,4.82
2022-12-05T22:46:28.392Z,4.83
2022-12-05T22:49:03.408Z,4.81
2022-12-05T22:51:32.509Z,4.82
2022-12-05T22:54:00.676Z,4.80
2022-12-05T22:56:29.386Z,4.83
2022-12-05T22:58:58.721Z,4.84
2022-12-05T23:01:30.372Z,4.81
2022-12-05T23:04:12.242Z,4.77
2022-12-05T23:06:40.880Z,4.75
2022-12-05T23:09:11.536Z,4.84
2022-12-05T23:11:41.681Z,4.83
2022-12-05T23:14:09.949Z,4.76
2022-12-05T23:16:41.182Z,4.83
2022-12-05T23:19:09.734Z,4.82
2022-12-05T23:21:40.305Z,4.85
2022-12-05T23:24:10.291Z,4.82
2022-12-05T23:26:41.095Z,4.83
2022-12-05T23:29:10.003Z,4.80
2022-12-05T23:31:38.096Z,4.78
2022-12-05T23:34:08.264Z,4.74
2022-12-05T23:36:36.471Z,4.80
2022-12-05T23:39:05.237Z,4.72
2022-12-05T23:41:33.411Z,4.74
2022-12-05T23:44:01.609Z,4.73
2022-12-05T23:46:29.999Z,4.70
2022-12-05T23:48:58.666Z,4.68
2022-12-05T23:51:30.077Z,4.69
2022-12-05T23:54:00.614Z,4.68
2022-12-05T23:56:31.176Z,4.66
2022-12-05T23:58:59.613Z,4.69
